createdAt,value
2022-10-20T00:04:29.698Z,7.96
2022-10-20T00:09:32.509Z,8.02
2022-10-20T00:14:35.345Z,7.96
2022-10-20T00:19:39.440Z,7.97
2022-10-20T00:24:42.341Z,7.89
2022-10-20T00:29:45.069Z,7.88
2022-10-20T00:34:49.181Z,7.81
2022-10-20T00:39:51.981Z,7.94
2022-10-20T00:44:57.370Z,7.94
2022-10-20T00:50:07.002Z,7.88
2022-10-20T00:55:11.611Z,7.88
2022-10-20T01:00:15.820Z,7.90
2022-10-20T01:05:20.718Z,7.82
2022-10-20T01:10:27.857Z,7.76
2022-10-20T01:15:38.488Z,7.78
2022-10-20T01:21:05.305Z,7.76
2022-10-20T01:26:31.537Z,7.79
2022-10-20T01:31:43.403Z,7.63
2022-10-20T01:36:52.266Z,7.72
2022-10-20T01:41:59.482Z,7.77
2022-10-20T01:47:04.863Z,7.65
2022-10-20T01:52:07.612Z,7.69
2022-10-20T01:57:26.873Z,7.64
2022-10-20T02:02:45.136Z,7.60
2022-10-20T02:07:47.891Z,7.54
2022-10-20T02:12:54.940Z,7.44
2022-10-20T02:18:06.754Z,7.45
2022-10-20T02:23:10.417Z,7.44
2022-10-20T02:28:16.328Z,7.44
2022-10-20T02:33:21.858Z,7.40
2022-10-20T02:38:24.846Z,7.29
2022-10-20T02:43:27.617Z,7.32
2022-10-20T02:48:31.779Z,7.31
2022-10-20T02:53:34.552Z,7.32
2022-10-20T02:58:37.337Z,7.29
2022-10-20T03:03:41.482Z,7.20
2022-10-20T03:08:45.510Z,7.21
2022-10-20T03:13:48.361Z,7.20
2022-10-20T03:18:52.688Z,7.08
2022-10-20T03:23:55.972Z,7.02
2022-10-20T03:28:58.857Z,6.98
2022-10-20T03:34:03.065Z,6.93
2022-10-20T03:39:05.873Z,6.92
2022-10-20T03:44:08.893Z,6.91
2022-10-20T03:49:13.206Z,6.86
2022-10-20T03:54:16.009Z,6.81
2022-10-20T03:59:18.887Z,6.79
2022-10-20T04:04:23.209Z,6.77
2022-10-20T04:09:26.113Z,6.78
2022-10-20T04:14:29.282Z,6.75
2022-10-20T04:19:33.479Z,6.74
2022-10-20T04:24:36.373Z,6.67
2022-10-20T04:29:39.329Z,6.72
2022-10-20T04:34:43.469Z,6.72
2022-10-20T04:39:46.235Z,6.72
2022-10-20T04:44:49.020Z,6.69
2022-10-20T04:49:53.131Z,6.63
2022-10-20T04:54:55.920Z,6.60
2022-10-20T04:59:58.734Z,6.57
2022-10-20T05:05:02.835Z,6.56
2022-10-20T05:10:07.195Z,6.55
2022-10-20T05:15:10.540Z,6.47
2022-10-20T05:20:14.956Z,6.43
2022-10-20T05:25:35.625Z,6.40
2022-10-20T05:30:39.537Z,6.39
2022-10-20T05:35:43.828Z,6.37
2022-10-20T05:40:46.631Z,6.37
2022-10-20T05:45:54.945Z,6.39
2022-10-20T05:51:10.681Z,6.41
2022-10-20T05:56:18.975Z,6.44
2022-10-20T06:01:24.859Z,6.45
2022-10-20T06:06:31.092Z,6.46
2022-10-20T06:11:37.109Z,6.55
2022-10-20T06:16:41.982Z,6.59
2022-10-20T06:21:47.433Z,6.80
2022-10-20T06:26:52.266Z,6.81
2022-10-20T06:31:56.166Z,6.98
2022-10-20T06:37:00.301Z,7.14
2022-10-20T06:42:09.539Z,7.37
2022-10-20T06:47:20.910Z,7.50
2022-10-20T06:52:25.079Z,7.73
2022-10-20T06:57:27.795Z,8.19
2022-10-20T07:02:30.551Z,8.76
2022-10-20T07:12:42.624Z,8.29
2022-10-20T07:17:45.648Z,8.10
2022-10-20T07:22:49.960Z,8.05
2022-10-20T07:27:52.727Z,7.93
2022-10-20T07:32:55.550Z,7.95
2022-10-20T07:37:59.818Z,8.10
2022-10-20T07:43:02.572Z,8.27
2022-10-20T07:48:07.074Z,8.45
2022-10-20T07:53:11.375Z,8.55
2022-10-20T07:58:14.135Z,8.63
2022-10-20T08:03:16.926Z,8.74
2022-10-20T08:08:21.111Z,8.71
2022-10-20T08:13:23.862Z,8.73
2022-10-20T08:18:27.888Z,8.94
2022-10-20T08:23:32.250Z,9.17
2022-10-20T08:28:35.268Z,9.06
2022-10-20T08:33:39.824Z,9.12
2022-10-20T08:38:44.694Z,9.21
2022-10-20T08:43:49.756Z,9.19
2022-10-20T08:48:52.850Z,9.44
2022-10-20T08:53:59.819Z,9.47
2022-10-20T08:59:04.306Z,9.32
2022-10-20T09:04:16.885Z,9.56
2022-10-20T09:09:23.480Z,9.71
2022-10-20T09:14:35.022Z,9.73
2022-10-20T09:19:37.802Z,9.64
2022-10-20T09:24:43.799Z,9.65
2022-10-20T09:29:47.036Z,9.98
2022-10-20T09:34:49.831Z,10.28
2022-10-20T09:39:57.188Z,10.34
2022-10-20T09:45:03.509Z,10.23
2022-10-20T09:50:09.435Z,10.37
2022-10-20T09:55:26.385Z,10.43
2022-10-20T10:00:37.355Z,10.75
2022-10-20T10:05:40.842Z,10.66
2022-10-20T10:10:47.231Z,10.55
2022-10-20T10:16:01.895Z,10.72
2022-10-20T10:21:07.846Z,10.99
2022-10-20T10:26:41.846Z,10.98
2022-10-20T10:31:52.284Z,11.09
2022-10-20T10:36:55.242Z,11.39
2022-10-20T10:42:18.680Z,11.42
2022-10-20T10:47:34.266Z,11.57
2022-10-20T10:52:52.155Z,11.53
2022-10-20T10:58:08.342Z,11.65
2022-10-20T11:03:30.891Z,11.71
2022-10-20T11:08:44.907Z,11.84
2022-10-20T11:13:56.820Z,11.89
2022-10-20T11:19:20.473Z,12.04
2022-10-20T11:24:38.243Z,11.99
2022-10-20T11:29:46.485Z,11.75
2022-10-20T11:34:57.901Z,12.02
2022-10-20T11:40:14.708Z,12.08
2022-10-20T11:45:33.434Z,12.32
2022-10-20T11:50:36.818Z,12.20
2022-10-20T11:55:52.163Z,12.20
2022-10-20T12:01:09.257Z,12.29
2022-10-20T12:06:49.596Z,12.51
2022-10-20T12:11:57.382Z,12.57
2022-10-20T12:17:16.252Z,12.65
2022-10-20T12:22:39.329Z,12.58
2022-10-20T12:27:42.474Z,12.56
2022-10-20T12:33:17.540Z,12.44
2022-10-20T12:38:23.374Z,12.65
2022-10-20T12:43:36.483Z,12.65
2022-10-20T12:48:47.020Z,12.75
2022-10-20T12:53:57.640Z,12.87
2022-10-20T12:59:38.132Z,12.93
2022-10-20T13:04:56.387Z,12.94
2022-10-20T13:10:01.834Z,12.98
2022-10-20T13:15:14.489Z,13.11
2022-10-20T13:20:28.939Z,13.05
2022-10-20T13:25:39.110Z,13.08
2022-10-20T13:30:59.451Z,13.05
2022-10-20T13:36:11.473Z,13.16
2022-10-20T13:41:21.038Z,13.17
2022-10-20T13:46:39.175Z,13.24
2022-10-20T13:51:48.119Z,13.25
2022-10-20T13:56:51.870Z,13.39
2022-10-20T14:01:57.127Z,13.39
2022-10-20T14:07:05.767Z,13.42
2022-10-20T14:12:13.878Z,13.30
2022-10-20T14:17:22.042Z,13.21
2022-10-20T14:22:26.381Z,13.17
2022-10-20T14:27:31.265Z,13.06
2022-10-20T14:32:41.181Z,12.98
2022-10-20T14:37:52.692Z,12.96
2022-10-20T14:43:00.022Z,12.92
2022-10-20T14:48:03.246Z,12.90
2022-10-20T14:53:30.883Z,12.81
2022-10-20T14:58:37.075Z,12.80
2022-10-20T15:03:39.937Z,12.76
2022-10-20T15:08:53.610Z,12.69
2022-10-20T15:13:59.030Z,12.66
2022-10-20T15:19:28.356Z,12.53
2022-10-20T15:24:32.572Z,12.49
2022-10-20T15:29:35.515Z,12.47
2022-10-20T15:34:39.196Z,12.33
2022-10-20T15:39:44.639Z,12.41
2022-10-20T15:44:47.480Z,12.32
2022-10-20T15:49:52.443Z,12.29
2022-10-20T15:54:56.696Z,12.15
2022-10-20T15:59:59.636Z,12.15
2022-10-20T16:05:02.573Z,12.07
2022-10-20T16:10:08.576Z,12.06
2022-10-20T16:15:12.763Z,12.00
2022-10-20T16:20:16.675Z,12.06
2022-10-20T16:25:21.300Z,12.06
2022-10-20T16:30:31.610Z,11.91
2022-10-20T16:36:04.083Z,12.01
2022-10-20T16:41:11.109Z,11.99
2022-10-20T16:46:16.773Z,12.03
2022-10-20T16:51:24.497Z,11.93
2022-10-20T16:56:53.796Z,12.02
2022-10-20T17:01:58.100Z,12.00
2022-10-20T17:07:01.050Z,12.02
2022-10-20T17:12:06.417Z,11.92
2022-10-20T17:17:09.623Z,11.95
2022-10-20T17:22:12.671Z,11.95
2022-10-20T17:27:17.059Z,11.86
2022-10-20T17:32:25.891Z,11.93
2022-10-20T17:38:23.594Z,11.91
2022-10-20T17:56:31.746Z,11.82
2022-10-20T18:02:01.552Z,11.84
2022-10-20T18:07:04.510Z,11.83
2022-10-20T18:12:09.403Z,11.72
2022-10-20T18:17:12.502Z,11.68
2022-10-20T18:22:15.767Z,11.64
2022-10-20T18:27:20.235Z,11.56
2022-10-20T18:32:23.358Z,11.41
2022-10-20T18:37:26.561Z,11.32
2022-10-20T18:42:31.317Z,11.40
2022-10-20T18:47:34.870Z,11.27
2022-10-20T18:52:38.036Z,11.46
2022-10-20T18:57:42.396Z,11.33
2022-10-20T19:02:48.274Z,11.35
2022-10-20T19:07:54.107Z,11.46
2022-10-20T19:12:58.464Z,11.41
2022-10-20T19:18:01.853Z,11.34
2022-10-20T19:23:05.050Z,11.27
2022-10-20T19:28:12.625Z,11.34
2022-10-20T19:33:15.888Z,11.16
2022-10-20T19:38:19.540Z,11.22
2022-10-20T19:43:24.770Z,11.03
2022-10-20T19:48:30.697Z,10.87
2022-10-20T19:54:12.390Z,10.61
2022-10-20T19:59:17.680Z,10.64
2022-10-20T20:04:21.065Z,10.63
2022-10-20T20:09:24.011Z,10.77
2022-10-20T20:14:28.170Z,10.70
2022-10-20T20:19:31.077Z,10.72
2022-10-20T20:24:34.655Z,10.75
2022-10-20T20:29:39.092Z,10.69
2022-10-20T20:34:41.884Z,10.67
2022-10-20T20:39:44.780Z,10.56
2022-10-20T20:44:48.976Z,10.35
2022-10-20T20:49:51.804Z,10.37
2022-10-20T20:54:54.690Z,10.54
2022-10-20T20:59:58.850Z,10.61
2022-10-20T21:05:01.744Z,10.61
2022-10-20T21:10:04.924Z,10.64
2022-10-20T21:15:10.148Z,10.62
2022-10-20T21:20:12.950Z,10.61
2022-10-20T21:25:15.879Z,10.60
2022-10-20T21:30:20.130Z,10.64
2022-10-20T21:35:23.014Z,10.66
2022-10-20T21:40:25.786Z,10.70
2022-10-20T21:45:29.947Z,10.60
2022-10-20T21:50:36.318Z,10.56
2022-10-20T21:55:39.133Z,10.51
2022-10-20T22:00:43.519Z,10.38
2022-10-20T22:05:46.479Z,10.45
2022-10-20T22:10:49.203Z,10.42
2022-10-20T22:15:53.291Z,10.37
2022-10-20T22:20:56.053Z,10.42
2022-10-20T22:25:58.993Z,10.34
2022-10-20T22:31:04.935Z,10.35
2022-10-20T22:36:08.069Z,10.25
2022-10-20T22:41:11.618Z,10.12
2022-10-20T22:46:16.791Z,10.19
2022-10-20T22:51:19.627Z,10.02
2022-10-20T22:56:23.512Z,10.12
2022-10-20T23:01:29.785Z,10.00
2022-10-20T23:06:32.657Z,10.05
2022-10-20T23:11:36.496Z,10.00
2022-10-20T23:16:40.725Z,9.92
2022-10-20T23:21:43.673Z,9.94
2022-10-20T23:26:46.599Z,10.01
2022-10-20T23:31:50.819Z,10.06
2022-10-20T23:36:53.844Z,10.02
2022-10-20T23:41:56.957Z,10.12
2022-10-20T23:47:01.200Z,10.08
2022-10-20T23:52:04.137Z,10.11
2022-10-20T23:57:07.043Z,10.22
